createdAt,value
2022-09-10T00:00:13.073Z,12.30
2022-09-10T00:02:40.045Z,8.77
2022-09-10T00:05:07.544Z,9.45
2022-09-10T00:07:34.256Z,10.32
2022-09-10T00:10:00.985Z,11.02
2022-09-10T00:12:27.705Z,16.88
2022-09-10T00:14:54.518Z,13.00
2022-09-10T00:17:21.304Z,9.85
2022-09-10T00:19:47.993Z,9.90
2022-09-10T00:22:14.969Z,9.98
2022-09-10T00:24:41.777Z,10.27
2022-09-10T00:27:09.190Z,9.60
2022-09-10T00:29:35.876Z,10.63
2022-09-10T00:32:04.316Z,12.98
2022-09-10T00:34:31.093Z,9.77
2022-09-10T00:36:59.344Z,11.05
2022-09-10T00:39:26.106Z,10.43
2022-09-10T00:41:55.110Z,8.55
2022-09-10T00:44:39.962Z,9.02
2022-09-10T00:47:11.373Z,10.82
2022-09-10T00:49:46.508Z,8.55
2022-09-10T00:52:13.983Z,13.60
2022-09-10T00:54:43.513Z,9.77
2022-09-10T00:57:14.902Z,9.60
2022-09-10T00:59:46.620Z,12.00
2022-09-10T01:02:14.953Z,10.80
2022-09-10T01:04:42.968Z,7.97
2022-09-10T01:07:11.263Z,12.52
2022-09-10T01:09:39.785Z,9.10
2022-09-10T01:12:33.149Z,8.98
2022-09-10T01:15:28.857Z,11.95
2022-09-10T01:18:32.820Z,14.00
2022-09-10T01:21:20.482Z,10.55
2022-09-10T01:24:26.264Z,10.43
2022-09-10T01:27:31.445Z,11.85
2022-09-10T01:30:09.528Z,7.80
2022-09-10T01:32:54.864Z,9.52
2022-09-10T01:35:36.499Z,9.98
2022-09-10T01:38:11.437Z,9.45
2022-09-10T01:40:38.699Z,8.35
2022-09-10T01:43:08.449Z,6.45
2022-09-10T01:46:05.487Z,8.63
2022-09-10T01:48:54.685Z,9.95
2022-09-10T01:51:43.405Z,8.10
2022-09-10T01:54:26.340Z,7.70
2022-09-10T01:57:08.062Z,14.80
2022-09-10T02:00:08.805Z,8.20
2022-09-10T02:02:48.550Z,6.72
2022-09-10T02:05:18.672Z,8.23
2022-09-10T02:07:46.609Z,6.55
2022-09-10T02:10:13.292Z,10.77
2022-09-10T02:12:40.141Z,9.35
2022-09-10T02:15:08.567Z,9.35
2022-09-10T02:17:37.858Z,6.65
2022-09-10T02:20:08.556Z,7.65
2022-09-10T02:22:36.818Z,6.00
2022-09-10T02:25:04.717Z,4.95
2022-09-10T02:27:32.959Z,5.10
2022-09-10T02:29:59.634Z,5.53
2022-09-10T02:32:26.351Z,7.70
2022-09-10T02:34:53.049Z,7.28
2022-09-10T02:37:20.217Z,5.78
2022-09-10T02:39:46.991Z,8.63
2022-09-10T02:42:16.969Z,6.93
2022-09-10T02:44:44.764Z,4.60
2022-09-10T02:47:11.683Z,4.88
2022-09-10T02:49:38.366Z,5.80
2022-09-10T02:52:05.234Z,5.45
2022-09-10T02:54:32.549Z,6.68
2022-09-10T02:56:59.336Z,4.65
2022-09-10T02:59:26.110Z,4.53
2022-09-10T03:01:54.491Z,4.80
2022-09-10T03:04:21.314Z,5.30
2022-09-10T03:06:49.468Z,6.88
2022-09-10T03:09:17.143Z,4.85
2022-09-10T03:11:43.825Z,6.45
2022-09-10T03:14:11.959Z,5.30
2022-09-10T03:16:40.189Z,5.28
2022-09-10T03:19:06.954Z,4.03
2022-09-10T03:21:34.424Z,5.38
2022-09-10T03:24:01.251Z,5.20
2022-09-10T03:26:27.948Z,7.68
2022-09-10T03:28:54.781Z,5.70
2022-09-10T03:31:21.819Z,4.38
2022-09-10T03:33:49.195Z,12.20
2022-09-10T03:36:15.990Z,5.50
2022-09-10T03:38:42.686Z,6.25
2022-09-10T03:41:09.865Z,7.63
2022-09-10T03:43:36.926Z,6.60
2022-09-10T03:46:04.021Z,7.55
2022-09-10T03:48:30.811Z,6.00
2022-09-10T03:50:57.552Z,5.07
2022-09-10T03:53:24.253Z,6.43
2022-09-10T03:55:51.871Z,4.40
2022-09-10T03:58:18.988Z,7.18
2022-09-10T04:00:46.637Z,5.47
2022-09-10T04:03:14.618Z,7.40
2022-09-10T04:05:45.089Z,4.85
2022-09-10T04:08:13.169Z,4.93
2022-09-10T04:10:40.961Z,5.20
2022-09-10T04:13:08.057Z,7.50
2022-09-10T04:15:35.049Z,6.80
2022-09-10T04:18:01.826Z,6.90
2022-09-10T04:20:28.676Z,6.88
2022-09-10T04:22:56.758Z,9.32
2022-09-10T04:25:23.657Z,6.63
2022-09-10T04:27:50.816Z,6.25
2022-09-10T04:30:18.319Z,4.57
2022-09-10T04:32:45.346Z,8.60
2022-09-10T04:35:15.384Z,5.93
2022-09-10T04:37:43.200Z,3.33
2022-09-10T04:40:10.612Z,7.80
2022-09-10T04:42:38.322Z,7.45
2022-09-10T04:45:06.224Z,4.18
2022-09-10T04:47:34.122Z,5.25
2022-09-10T04:50:01.094Z,7.43
2022-09-10T04:52:28.933Z,5.93
2022-09-10T04:54:55.648Z,4.65
2022-09-10T04:57:22.563Z,5.60
2022-09-10T04:59:49.246Z,4.75
2022-09-10T05:02:16.105Z,6.10
2022-09-10T05:04:43.380Z,6.00
2022-09-10T05:07:10.106Z,6.10
2022-09-10T05:09:36.856Z,8.40
2022-09-10T05:12:04.290Z,5.43
2022-09-10T05:14:30.985Z,6.95
2022-09-10T05:16:57.837Z,5.22
2022-09-10T05:19:24.534Z,4.75
2022-09-10T05:21:51.586Z,6.15
2022-09-10T05:24:18.328Z,5.07
2022-09-10T05:26:46.284Z,3.90
2022-09-10T05:29:14.005Z,3.63
2022-09-10T05:31:41.024Z,4.68
2022-09-10T05:34:08.942Z,4.45
2022-09-10T05:36:35.827Z,3.42
2022-09-10T05:39:05.676Z,10.00
2022-09-10T05:41:33.123Z,3.22
2022-09-10T05:43:59.981Z,2.85
2022-09-10T05:46:30.920Z,2.88
2022-09-10T05:48:58.153Z,3.83
2022-09-10T05:51:28.662Z,1.80
2022-09-10T05:53:55.553Z,2.25
2022-09-10T05:56:22.207Z,5.03
2022-09-10T05:58:49.732Z,2.95
2022-09-10T06:01:16.502Z,3.65
2022-09-10T06:03:43.170Z,4.63
2022-09-10T06:06:10.089Z,4.03
2022-09-10T06:08:37.068Z,2.60
2022-09-10T06:11:05.846Z,4.07
2022-09-10T06:13:33.966Z,1.80
2022-09-10T06:16:01.325Z,2.72
2022-09-10T06:18:28.678Z,1.83
2022-09-10T06:21:25.016Z,4.03
2022-09-10T06:23:54.729Z,3.95
2022-09-10T06:26:21.426Z,2.65
2022-09-10T06:28:49.856Z,3.58
2022-09-10T06:31:20.071Z,2.72
2022-09-10T06:33:49.022Z,3.50
2022-09-10T06:36:15.894Z,2.55
2022-09-10T06:38:45.054Z,3.10
2022-09-10T06:41:13.643Z,3.35
2022-09-10T06:43:41.393Z,3.33
2022-09-10T06:46:40.845Z,3.00
2022-09-10T06:49:03.682Z,4.75
2022-09-10T06:51:31.099Z,3.00
2022-09-10T06:53:57.885Z,9.05
2022-09-10T06:56:24.645Z,3.47
2022-09-10T06:58:51.754Z,3.38
2022-09-10T07:01:21.551Z,3.53
2022-09-10T07:03:48.491Z,3.75
2022-09-10T07:06:17.056Z,4.78
2022-09-10T07:08:44.226Z,3.13
2022-09-10T07:11:12.972Z,3.28
2022-09-10T07:13:42.251Z,5.07
2022-09-10T07:16:09.687Z,2.90
2022-09-10T07:18:36.748Z,6.43
2022-09-10T07:21:11.919Z,2.47
2022-09-10T07:23:41.867Z,1.98
2022-09-10T07:26:11.509Z,4.88
2022-09-10T07:28:39.813Z,4.60
2022-09-10T07:31:25.628Z,4.30
2022-09-10T07:33:52.864Z,3.67
2022-09-10T07:36:19.539Z,4.32
2022-09-10T07:38:46.477Z,2.20
2022-09-10T07:41:15.447Z,3.50
2022-09-10T07:43:43.811Z,2.42
2022-09-10T07:46:13.325Z,2.90
2022-09-10T07:48:41.578Z,4.95
2022-09-10T07:51:10.814Z,2.08
2022-09-10T07:53:38.623Z,7.32
2022-09-10T07:56:07.952Z,5.20
2022-09-10T07:58:36.000Z,2.70
2022-09-10T08:01:09.029Z,2.88
2022-09-10T08:03:35.777Z,3.08
2022-09-10T08:06:03.262Z,3.28
2022-09-10T08:08:34.876Z,3.72
2022-09-10T08:11:13.028Z,2.53
2022-09-10T08:13:46.176Z,2.95
2022-09-10T08:16:15.554Z,3.70
2022-09-10T08:18:46.955Z,2.70
2022-09-10T08:21:14.553Z,1.75
2022-09-10T08:23:41.657Z,2.55
2022-09-10T08:26:08.668Z,4.15
2022-09-10T08:28:36.314Z,4.28
2022-09-10T08:31:08.914Z,3.67
2022-09-10T08:33:39.863Z,3.20
2022-09-10T08:36:12.054Z,2.28
2022-09-10T08:38:40.210Z,1.90
2022-09-10T08:41:49.409Z,2.65
2022-09-10T08:44:25.275Z,2.72
2022-09-10T08:46:56.437Z,2.38
2022-09-10T08:49:42.237Z,2.17
2022-09-10T08:52:33.943Z,3.92
2022-09-10T08:55:23.422Z,3.70
2022-09-10T08:58:01.658Z,2.58
2022-09-10T09:00:33.419Z,3.22
2022-09-10T09:03:10.002Z,2.15
2022-09-10T09:06:00.880Z,4.95
2022-09-10T09:08:35.558Z,2.88
2022-09-10T09:11:20.439Z,1.85
2022-09-10T09:13:56.509Z,3.33
2022-09-10T09:16:26.325Z,2.97
2022-09-10T09:19:24.086Z,3.60
2022-09-10T09:21:56.153Z,2.25
2022-09-10T09:24:58.931Z,1.00
2022-09-10T09:27:30.088Z,1.02
2022-09-10T09:30:01.799Z,1.75
2022-09-10T09:32:33.901Z,1.75
2022-09-10T09:35:32.583Z,1.52
2022-09-10T09:38:08.167Z,1.48
2022-09-10T09:41:07.363Z,1.45
2022-09-10T09:43:52.812Z,1.65
2022-09-10T09:46:21.548Z,2.17
2022-09-10T09:48:53.731Z,0.95
2022-09-10T09:51:21.441Z,2.40
2022-09-10T09:54:00.976Z,1.50
2022-09-10T09:56:42.164Z,2.63
2022-09-10T09:59:21.860Z,2.45
2022-09-10T10:01:48.860Z,1.88
2022-09-10T10:04:24.688Z,2.47
2022-09-10T10:06:59.963Z,1.85
2022-09-10T10:09:28.981Z,1.02
2022-09-10T10:11:57.927Z,3.28
2022-09-10T10:14:35.310Z,2.45
2022-09-10T10:17:02.593Z,1.75
2022-09-10T10:19:29.337Z,1.80
2022-09-10T10:21:56.055Z,1.92
2022-09-10T10:24:33.835Z,0.93
2022-09-10T10:27:00.881Z,0.90
2022-09-10T10:29:28.487Z,0.85
2022-09-10T10:31:56.312Z,4.18
2022-09-10T10:34:35.538Z,1.80
2022-09-10T10:37:16.252Z,2.63
2022-09-10T10:40:03.354Z,1.50
2022-09-10T10:42:51.246Z,1.50
2022-09-10T10:45:36.610Z,2.47
2022-09-10T10:48:37.423Z,1.05
2022-09-10T10:51:07.343Z,3.40
2022-09-10T10:54:02.911Z,1.30
2022-09-10T10:56:42.699Z,0.60
2022-09-10T10:59:37.151Z,3.45
2022-09-10T11:02:20.461Z,2.38
2022-09-10T11:05:03.583Z,4.63
2022-09-10T11:07:39.455Z,2.60
2022-09-10T11:10:20.073Z,1.45
2022-09-10T11:13:23.947Z,0.70
2022-09-10T11:16:05.702Z,2.08
2022-09-10T11:18:43.877Z,1.17
2022-09-10T11:21:13.327Z,1.23
2022-09-10T11:23:46.326Z,1.00
2022-09-10T11:26:18.666Z,1.45
2022-09-10T11:29:43.942Z,1.10
2022-09-10T11:32:19.158Z,1.25
2022-09-10T11:35:08.518Z,1.92
2022-09-10T11:37:47.616Z,0.63
2022-09-10T11:40:27.739Z,1.30
2022-09-10T11:42:59.988Z,1.42
2022-09-10T11:45:53.682Z,1.45
2022-09-10T11:48:29.105Z,0.82
2022-09-10T11:51:10.707Z,1.50
2022-09-10T11:53:37.458Z,1.38
2022-09-10T11:56:10.275Z,1.15
2022-09-10T11:58:47.380Z,2.33
2022-09-10T12:01:49.933Z,1.27
2022-09-10T12:04:22.352Z,8.73
2022-09-10T12:07:04.375Z,4.10
2022-09-10T12:09:58.249Z,3.15
2022-09-10T12:12:42.478Z,1.77
2022-09-10T12:15:21.709Z,1.02
2022-09-10T12:17:54.464Z,2.03
2022-09-10T12:20:31.947Z,1.10
2022-09-10T12:22:59.753Z,1.75
2022-09-10T12:25:34.583Z,2.05
2022-09-10T12:28:06.439Z,3.33
2022-09-10T12:30:35.927Z,1.98
2022-09-10T12:33:17.464Z,1.77
2022-09-10T12:35:47.753Z,2.63
2022-09-10T12:38:48.826Z,3.05
2022-09-10T12:41:24.761Z,1.77
2022-09-10T12:44:01.376Z,1.23
2022-09-10T12:46:44.998Z,1.73
2022-09-10T12:49:16.610Z,1.80
2022-09-10T12:52:03.192Z,1.90
2022-09-10T12:54:53.742Z,2.20
2022-09-10T12:57:42.105Z,2.50
2022-09-10T13:00:17.975Z,3.20
2022-09-10T13:02:58.315Z,2.03
2022-09-10T13:05:48.247Z,1.90
2022-09-10T13:08:41.471Z,1.13
2022-09-10T13:11:23.775Z,1.83
2022-09-10T13:14:01.031Z,4.88
2022-09-10T13:16:27.993Z,3.22
2022-09-10T13:19:14.906Z,1.70
2022-09-10T13:21:44.332Z,1.88
2022-09-10T13:24:37.440Z,1.92
2022-09-10T13:27:34.687Z,2.28
2022-09-10T13:30:28.741Z,6.25
2022-09-10T13:33:04.401Z,1.90
2022-09-10T13:36:10.701Z,2.38
2022-09-10T13:39:09.737Z,2.05
2022-09-10T13:41:51.533Z,2.45
2022-09-10T13:44:40.258Z,3.10
2022-09-10T13:47:15.372Z,1.20
2022-09-10T13:50:25.499Z,1.58
2022-09-10T13:53:00.023Z,1.90
2022-09-10T13:55:30.458Z,1.85
2022-09-10T13:58:16.547Z,2.13
2022-09-10T14:00:53.746Z,4.25
2022-09-10T14:03:24.817Z,1.60
2022-09-10T14:06:05.149Z,2.95
2022-09-10T14:08:35.680Z,2.47
2022-09-10T14:11:16.456Z,3.65
2022-09-10T14:13:51.843Z,3.53
2022-09-10T14:16:28.312Z,2.80
2022-09-10T14:18:59.782Z,1.90
2022-09-10T14:21:27.530Z,4.68
2022-09-10T14:23:57.195Z,1.83
2022-09-10T14:26:30.184Z,2.33
2022-09-10T14:29:03.457Z,3.60
2022-09-10T14:31:37.551Z,2.35
2022-09-10T14:34:24.866Z,2.92
2022-09-10T14:36:51.665Z,2.35
2022-09-10T14:39:20.518Z,1.98
2022-09-10T14:41:48.286Z,4.82
2022-09-10T14:44:24.017Z,2.47
2022-09-10T14:46:54.200Z,2.00
2022-09-10T14:49:41.867Z,1.70
2022-09-10T14:52:11.823Z,3.08
2022-09-10T14:54:38.710Z,2.92
2022-09-10T14:57:14.737Z,3.30
2022-09-10T14:59:43.871Z,1.92
2022-09-10T15:02:13.622Z,2.88
2022-09-10T15:04:40.440Z,4.13
2022-09-10T15:07:10.128Z,5.57
2022-09-10T15:09:36.834Z,5.00
2022-09-10T15:12:13.548Z,2.40
2022-09-10T15:14:40.275Z,4.07
2022-09-10T15:17:06.970Z,1.40
2022-09-10T15:19:33.701Z,1.92
2022-09-10T15:22:00.548Z,2.92
2022-09-10T15:24:28.297Z,2.28
2022-09-10T15:26:56.416Z,1.63
2022-09-10T15:29:23.790Z,3.00
2022-09-10T15:31:51.717Z,1.65
2022-09-10T15:34:19.413Z,2.13
2022-09-10T15:36:47.488Z,3.90
2022-09-10T15:39:14.252Z,2.35
2022-09-10T15:41:42.551Z,2.05
2022-09-10T15:44:09.694Z,3.70
2022-09-10T15:46:39.952Z,3.15
2022-09-10T15:49:06.661Z,3.13
2022-09-10T15:51:33.380Z,2.53
2022-09-10T15:54:04.793Z,1.92
2022-09-10T15:56:32.655Z,2.30
2022-09-10T15:58:59.772Z,4.35
2022-09-10T16:01:30.991Z,3.17
2022-09-10T16:04:02.886Z,2.20
2022-09-10T16:06:33.434Z,2.90
2022-09-10T16:09:03.240Z,2.67
2022-09-10T16:11:32.309Z,4.15
2022-09-10T16:14:04.338Z,5.80
2022-09-10T16:16:32.255Z,5.85
2022-09-10T16:19:00.138Z,3.22
2022-09-10T16:21:29.644Z,4.40
2022-09-10T16:23:58.663Z,6.18
2022-09-10T16:26:28.660Z,3.92
2022-09-10T16:29:00.477Z,4.70
2022-09-10T16:31:36.284Z,4.68
2022-09-10T16:34:05.930Z,4.95
2022-09-10T16:36:34.599Z,2.92
2022-09-10T16:39:01.818Z,7.20
2022-09-10T16:41:29.298Z,4.50
2022-09-10T16:43:58.655Z,3.08
2022-09-10T16:46:26.792Z,3.55
2022-09-10T16:48:54.818Z,3.38
2022-09-10T16:51:24.325Z,5.90
2022-09-10T16:54:02.631Z,9.93
2022-09-10T16:56:34.178Z,8.70
2022-09-10T16:59:02.375Z,13.70
2022-09-10T17:01:29.708Z,11.32
2022-09-10T17:03:56.831Z,7.47
2022-09-10T17:06:25.794Z,5.13
2022-09-10T17:08:57.760Z,3.70
2022-09-10T17:11:26.397Z,3.53
2022-09-10T17:13:54.290Z,4.45
2022-09-10T17:16:21.007Z,3.28
2022-09-10T17:18:54.363Z,8.40
2022-09-10T17:21:21.047Z,4.65
2022-09-10T17:23:47.705Z,9.52
2022-09-10T17:26:14.443Z,5.30
2022-09-10T17:28:41.831Z,4.13
2022-09-10T17:31:08.646Z,6.10
2022-09-10T17:33:35.508Z,2.42
2022-09-10T17:36:03.915Z,4.35
2022-09-10T17:38:33.207Z,5.78
2022-09-10T17:41:03.320Z,2.20
2022-09-10T17:43:34.719Z,2.78
2022-09-10T17:46:06.097Z,3.40
2022-09-10T17:48:34.497Z,3.10
2022-09-10T17:51:01.902Z,5.30
2022-09-10T17:53:28.910Z,2.45
2022-09-10T17:56:01.243Z,10.73
2022-09-10T17:58:27.926Z,2.42
2022-09-10T18:00:58.894Z,5.97
2022-09-10T18:03:25.741Z,6.05
2022-09-10T18:05:52.805Z,5.72
2022-09-10T18:08:19.503Z,7.22
2022-09-10T18:10:46.689Z,7.22
2022-09-10T18:13:14.240Z,4.18
2022-09-10T18:15:46.459Z,5.55
2022-09-10T18:18:13.315Z,5.30
2022-09-10T18:20:39.986Z,11.93
2022-09-10T18:23:07.118Z,15.85
2022-09-10T18:25:33.892Z,15.23
2022-09-10T18:28:03.422Z,12.68
2022-09-10T18:30:30.752Z,9.27
2022-09-10T18:32:57.678Z,10.60
2022-09-10T18:35:24.423Z,5.68
2022-09-10T18:37:51.869Z,5.13
2022-09-10T18:40:19.627Z,8.07
2022-09-10T18:42:47.810Z,8.40
2022-09-10T18:45:15.039Z,6.32
2022-09-10T18:47:45.200Z,5.15
2022-09-10T18:50:13.344Z,7.53
2022-09-10T18:52:40.208Z,12.23
2022-09-10T18:55:07.241Z,6.45
2022-09-10T18:57:33.913Z,5.50
2022-09-10T19:00:02.871Z,5.65
2022-09-10T19:02:29.765Z,7.15
2022-09-10T19:05:12.517Z,12.75
2022-09-10T19:07:39.666Z,9.07
2022-09-10T19:10:07.487Z,7.03
2022-09-10T19:12:34.470Z,10.18
2022-09-10T19:15:01.155Z,8.00
2022-09-10T19:17:28.028Z,7.50
2022-09-10T19:19:54.687Z,7.38
2022-09-10T19:22:21.353Z,8.55
2022-09-10T19:24:55.060Z,6.30
2022-09-10T19:27:22.910Z,7.63
2022-09-10T19:29:50.167Z,8.18
2022-09-10T19:32:17.668Z,8.55
2022-09-10T19:34:44.465Z,6.57
2022-09-10T19:37:11.291Z,10.75
2022-09-10T19:39:38.513Z,8.30
2022-09-10T19:42:06.919Z,10.27
2022-09-10T19:44:33.830Z,15.77
2022-09-10T19:47:00.656Z,23.15
2022-09-10T19:49:27.575Z,33.90
2022-09-10T19:51:54.266Z,30.85
2022-09-10T19:54:22.792Z,25.77
2022-09-10T19:56:49.833Z,20.63
2022-09-10T19:59:16.965Z,16.95
2022-09-10T20:01:45.917Z,21.75
2022-09-10T20:04:14.087Z,14.43
2022-09-10T20:06:42.460Z,14.73
2022-09-10T20:09:12.629Z,15.38
2022-09-10T20:11:39.505Z,14.15
2022-09-10T20:14:11.255Z,14.23
2022-09-10T20:16:39.891Z,14.05
2022-09-10T20:19:07.797Z,19.25
2022-09-10T20:21:35.810Z,21.20
2022-09-10T20:24:02.687Z,25.20
2022-09-10T20:26:34.619Z,21.00
2022-09-10T20:29:03.993Z,23.42
2022-09-10T20:31:33.739Z,18.45
2022-09-10T20:34:03.560Z,18.17
2022-09-10T20:36:32.055Z,20.23
2022-09-10T20:38:59.097Z,17.52
2022-09-10T20:41:30.339Z,14.55
2022-09-10T20:43:59.012Z,19.02
2022-09-10T20:46:27.307Z,16.55
2022-09-10T20:48:55.022Z,15.98
2022-09-10T20:51:21.726Z,15.85
2022-09-10T20:53:48.507Z,15.60
2022-09-10T20:56:18.288Z,14.07
2022-09-10T20:58:46.343Z,14.23
2022-09-10T21:01:17.398Z,15.40
2022-09-10T21:03:44.863Z,14.02
2022-09-10T21:06:13.544Z,15.10
2022-09-10T21:08:42.152Z,15.05
2022-09-10T21:11:20.630Z,13.25
2022-09-10T21:13:50.380Z,13.77
2022-09-10T21:16:19.854Z,13.90
2022-09-10T21:18:53.605Z,16.73
2022-09-10T21:21:23.511Z,15.48
2022-09-10T21:23:52.352Z,16.50
2022-09-10T21:26:21.787Z,14.82
2022-09-10T21:28:51.226Z,15.50
2022-09-10T21:31:18.076Z,13.55
2022-09-10T21:33:46.173Z,16.30
2022-09-10T21:36:15.452Z,15.32
2022-09-10T21:38:46.413Z,15.15
2022-09-10T21:41:15.412Z,18.48
2022-09-10T21:43:43.840Z,16.55
2022-09-10T21:46:11.637Z,15.82
2022-09-10T21:48:39.964Z,19.40
2022-09-10T21:51:18.195Z,14.38
2022-09-10T21:53:45.587Z,15.90
2022-09-10T21:56:14.631Z,16.02
2022-09-10T21:58:43.439Z,14.60
2022-09-10T22:01:17.564Z,19.90
2022-09-10T22:03:47.188Z,15.57
2022-09-10T22:06:15.228Z,15.70
2022-09-10T22:08:43.901Z,13.80
2022-09-10T22:11:15.385Z,17.77
2022-09-10T22:13:43.658Z,18.02
2022-09-10T22:16:14.796Z,21.33
2022-09-10T22:18:42.107Z,18.13
2022-09-10T22:21:09.715Z,18.92
2022-09-10T22:23:38.395Z,24.23
2022-09-10T22:26:10.155Z,22.38
2022-09-10T22:28:38.351Z,22.60
2022-09-10T22:31:10.742Z,18.60
2022-09-10T22:33:38.865Z,20.23
2022-09-10T22:36:23.688Z,17.92
2022-09-10T22:39:01.689Z,19.90
2022-09-10T22:41:29.980Z,21.70
2022-09-10T22:43:57.142Z,18.95
2022-09-10T22:46:24.426Z,18.27
2022-09-10T22:48:51.226Z,20.70
2022-09-10T22:51:20.414Z,20.65
2022-09-10T22:53:48.178Z,23.15
2022-09-10T22:56:17.676Z,22.80
2022-09-10T22:58:45.666Z,21.27
2022-09-10T23:01:15.272Z,21.92
2022-09-10T23:03:43.275Z,26.48
2022-09-10T23:06:19.041Z,23.10
2022-09-10T23:08:48.406Z,22.23
2022-09-10T23:11:21.148Z,21.05
2022-09-10T23:13:54.004Z,23.80
2022-09-10T23:16:23.475Z,21.75
2022-09-10T23:18:54.788Z,20.55
2022-09-10T23:21:24.128Z,21.73
2022-09-10T23:23:53.650Z,20.17
2022-09-10T23:26:21.874Z,24.13
2022-09-10T23:28:49.302Z,20.70
2022-09-10T23:31:21.636Z,21.08
2022-09-10T23:33:55.390Z,21.17
2022-09-10T23:36:22.759Z,21.98
2022-09-10T23:38:49.616Z,20.27
2022-09-10T23:41:16.692Z,19.85
2022-09-10T23:43:44.513Z,19.80
2022-09-10T23:46:12.374Z,19.92
2022-09-10T23:48:39.540Z,19.92
2022-09-10T23:51:06.715Z,18.83
2022-09-10T23:53:33.784Z,17.35
2022-09-10T23:56:02.766Z,17.77
2022-09-10T23:58:29.949Z,19.67
